Time;durP1;ratioP1;P1;durP2;ratioP2;P2;SDS_P1;SDS_P2;PMS_P1;PMS_P2;Temp;Humidity;BMP_temperature;BMP_pressure;BME280_temperature;BME280_humidity;BME280_pressure;Samples;Min_cycle;Max_cycle;Signal;HPM_P1;HPM_P2
2023/09/16 00:00:33;;;;;;;11.77;9.27;;;19.20;99.90;;;;;;5096453;28;20051;-68
2023/09/16 00:03:00;;;;;;;12.77;9.35;;;19.30;99.90;;;;;;5096838;28;20024;-67
2023/09/16 00:05:26;;;;;;;12.18;7.63;;;19.30;99.90;;;;;;5096406;28;20031;-68
2023/09/16 00:07:53;;;;;;;10.65;5.55;;;19.30;99.90;;;;;;5097059;28;20382;-68
2023/09/16 00:10:19;;;;;;;7.45;5.53;;;19.20;99.90;;;;;;5096359;28;20086;-68
2023/09/16 00:12:45;;;;;;;10.63;6.25;;;19.20;99.90;;;;;;5096604;28;20039;-68
2023/09/16 00:15:11;;;;;;;10.68;6.50;;;19.20;99.90;;;;;;5096200;28;20028;-68
2023/09/16 00:17:37;;;;;;;8.90;6.20;;;19.20;99.90;;;;;;5096575;28;20059;-68
2023/09/16 00:20:15;;;;;;;8.88;6.00;;;19.20;99.90;;;;;;5095953;28;20028;-68
2023/09/16 00:22:44;;;;;;;7.65;6.45;;;19.10;99.90;;;;;;5096750;28;20028;-68
2023/09/16 00:25:14;;;;;;;12.73;7.40;;;19.20;99.90;;;;;;5096195;28;20103;-68
2023/09/16 00:27:40;;;;;;;12.35;6.28;;;19.20;99.90;;;;;;5096107;28;20153;-68
2023/09/16 00:30:07;;;;;;;12.27;5.93;;;19.10;99.90;;;;;;5095916;28;20020;-67
2023/09/16 00:32:34;;;;;;;9.63;5.78;;;19.10;99.90;;;;;;5096081;28;20110;-67
2023/09/16 00:35:02;;;;;;;7.15;5.22;;;19.10;99.90;;;;;;5077691;28;20036;-67
2023/09/16 00:37:28;;;;;;;7.72;6.20;;;19.10;99.90;;;;;;5077950;28;20583;-67
2023/09/16 00:39:55;;;;;;;9.82;5.50;;;19.00;99.90;;;;;;5095601;28;20446;-68
2023/09/16 00:42:21;;;;;;;8.40;5.40;;;19.00;99.90;;;;;;5096127;28;20020;-68
2023/09/16 00:44:47;;;;;;;9.23;6.13;;;19.00;99.90;;;;;;5096010;28;20468;-68
2023/09/16 00:47:13;;;;;;;11.35;6.03;;;19.00;99.90;;;;;;5095929;28;20081;-68
2023/09/16 00:49:40;;;;;;;11.98;5.25;;;19.00;99.90;;;;;;5095995;28;20028;-68
2023/09/16 00:52:07;;;;;;;6.70;4.90;;;18.90;99.90;;;;;;5095454;28;20024;-67
2023/09/16 00:54:34;;;;;;;9.38;5.50;;;19.00;99.90;;;;;;5061314;28;20033;-68
2023/09/16 00:57:01;;;;;;;6.75;5.40;;;19.00;99.90;;;;;;5071206;28;20385;-67
2023/09/16 00:59:32;;;;;;;11.65;5.90;;;18.90;99.90;;;;;;5095608;28;20375;-68
2023/09/16 01:01:59;;;;;;;8.38;5.75;;;18.90;99.90;;;;;;5077036;28;20036;-68
2023/09/16 01:04:26;;;;;;;8.82;5.60;;;18.80;99.90;;;;;;5077578;28;20119;-68
2023/09/16 01:06:52;;;;;;;9.05;5.68;;;18.80;99.90;;;;;;5095242;28;20028;-68
2023/09/16 01:09:20;;;;;;;11.95;6.13;;;18.90;99.90;;;;;;5095613;28;20149;-68
2023/09/16 01:11:47;;;;;;;7.88;5.07;;;18.90;99.90;;;;;;5094979;28;20034;-68
2023/09/16 01:14:14;;;;;;;8.93;5.82;;;18.90;99.90;;;;;;5095406;28;20020;-68
2023/09/16 01:16:48;;;;;;;8.50;6.10;;;18.90;99.90;;;;;;5076880;28;20039;-68
2023/09/16 01:19:19;;;;;;;8.82;5.63;;;18.90;99.90;;;;;;5095351;28;20055;-67
2023/09/16 01:21:46;;;;;;;;;;;18.90;99.90;;;;;;5095375;28;20062;-67
2023/09/16 01:24:22;;;;;;;12.35;6.43;;;18.80;99.90;;;;;;5095357;28;20376;-67
2023/09/16 01:26:49;;;;;;;12.45;6.43;;;18.80;99.90;;;;;;5076581;28;20059;-68
2023/09/16 01:29:19;;;;;;;8.20;6.05;;;18.80;99.90;;;;;;5095124;28;20028;-67
2023/09/16 01:31:46;;;;;;;20.20;7.25;;;18.80;99.90;;;;;;5094852;28;20052;-67
2023/09/16 01:34:23;;;;;;;12.40;6.43;;;18.80;99.90;;;;;;5076692;28;20490;-68
2023/09/16 01:36:54;;;;;;;9.18;6.22;;;18.80;99.90;;;;;;5094735;28;20565;-67
2023/09/16 01:39:22;;;;;;;14.02;6.30;;;18.90;99.90;;;;;;5094931;28;20490;-67
2023/09/16 01:41:51;;;;;;;7.78;6.28;;;18.90;99.90;;;;;;5094476;28;20059;-67
2023/09/16 01:44:17;;;;;;;9.50;5.80;;;18.80;99.90;;;;;;5076859;28;20031;-67
2023/09/16 01:46:44;;;;;;;6.65;4.90;;;18.80;99.90;;;;;;5094964;28;20032;-67
2023/09/16 01:49:10;;;;;;;8.35;4.85;;;18.90;99.90;;;;;;5092866;28;20112;-67
2023/09/16 01:51:35;;;;;;;8.85;4.90;;;18.90;99.90;;;;;;5093292;28;20051;-67
2023/09/16 01:54:01;;;;;;;13.02;5.43;;;18.80;99.90;;;;;;5080979;28;20484;-67
2023/09/16 01:56:27;;;;;;;6.90;5.13;;;18.80;99.90;;;;;;5084240;28;20415;-68
2023/09/16 01:58:53;;;;;;;8.43;4.90;;;18.80;99.90;;;;;;5076233;28;20478;-67
2023/09/16 02:01:19;;;;;;;9.73;5.82;;;18.80;99.90;;;;;;5093471;28;20036;-68
2023/09/16 02:03:45;;;;;;;9.45;5.65;;;18.90;99.90;;;;;;5076183;28;20032;-68
2023/09/16 02:06:12;;;;;;;9.07;5.47;;;18.80;99.90;;;;;;5076566;28;20027;-67
2023/09/16 02:08:38;;;;;;;8.27;5.20;;;18.80;99.90;;;;;;5082432;28;20491;-68
2023/09/16 02:11:05;;;;;;;8.10;5.10;;;18.80;99.90;;;;;;5093297;28;20036;-67
2023/09/16 02:13:35;;;;;;;7.45;5.00;;;18.80;99.90;;;;;;5092838;28;20032;-67
2023/09/16 02:16:02;;;;;;;7.35;4.70;;;18.90;99.90;;;;;;5092998;28;20038;-67
2023/09/16 02:18:29;;;;;;;7.07;5.15;;;18.80;99.90;;;;;;5092828;28;20028;-67
2023/09/16 02:20:55;;;;;;;7.30;4.60;;;18.80;99.90;;;;;;5093192;28;20148;-68
2023/09/16 02:23:22;;;;;;;7.25;5.20;;;18.80;99.90;;;;;;5094350;28;20056;-67
2023/09/16 02:25:48;;;;;;;8.65;5.28;;;18.80;99.90;;;;;;5092968;28;20036;-68
2023/09/16 02:28:14;;;;;;;8.20;5.07;;;18.80;99.90;;;;;;5092939;28;20024;-67
2023/09/16 02:30:40;;;;;;;8.38;5.55;;;18.80;99.90;;;;;;5076311;28;20029;-68
2023/09/16 02:33:06;;;;;;;9.38;5.75;;;18.90;99.90;;;;;;5076213;28;20032;-68
2023/09/16 02:35:32;;;;;;;9.77;5.90;;;18.90;99.90;;;;;;5075820;28;20429;-67
2023/09/16 02:37:58;;;;;;;12.60;6.47;;;18.90;99.90;;;;;;5076240;28;20038;-68
2023/09/16 02:40:25;;;;;;;8.43;5.43;;;18.70;99.90;;;;;;5075608;28;20036;-68
2023/09/16 02:42:51;;;;;;;8.73;5.82;;;18.80;99.90;;;;;;5076281;28;20024;-67
2023/09/16 02:45:17;;;;;;;6.60;5.22;;;18.80;99.90;;;;;;5093932;28;20070;-67
2023/09/16 02:47:43;;;;;;;8.65;5.15;;;18.80;99.90;;;;;;5076183;28;20028;-68
2023/09/16 02:50:09;;;;;;;10.13;5.85;;;18.80;99.90;;;;;;5092226;28;20108;-68
2023/09/16 02:52:35;;;;;;;10.15;6.20;;;18.80;99.90;;;;;;5092834;28;20436;-68
2023/09/16 02:55:01;;;;;;;10.60;6.45;;;18.70;99.90;;;;;;5055509;28;20043;-68
2023/09/16 02:57:27;;;;;;;8.30;6.45;;;18.80;99.90;;;;;;5070187;28;20028;-68
2023/09/16 02:59:53;;;;;;;9.48;6.22;;;18.70;99.90;;;;;;5072103;28;20052;-67
2023/09/16 03:02:19;;;;;;;7.45;5.63;;;18.70;99.90;;;;;;5072740;28;20098;-68
2023/09/16 03:04:46;;;;;;;8.20;5.50;;;18.70;99.90;;;;;;5072185;28;20069;-67
2023/09/16 03:07:12;;;;;;;10.02;5.00;;;18.70;99.90;;;;;;5072648;28;20028;-68
2023/09/16 03:09:38;;;;;;;9.82;5.35;;;18.70;99.90;;;;;;5072255;28;20024;-67
2023/09/16 03:12:06;;;;;;;8.82;5.15;;;18.70;99.90;;;;;;5072364;28;20032;-67
2023/09/16 03:14:32;;;;;;;10.10;5.68;;;18.60;99.90;;;;;;5072603;28;20094;-67
2023/09/16 03:16:58;;;;;;;7.05;5.55;;;18.60;99.90;;;;;;5072352;28;20347;-67
2023/09/16 03:19:25;;;;;;;9.00;5.53;;;18.60;99.90;;;;;;5073319;28;20048;-68
2023/09/16 03:21:51;;;;;;;5.72;5.10;;;18.60;99.90;;;;;;5075655;28;20123;-67
2023/09/16 03:24:17;;;;;;;11.20;5.50;;;18.50;99.90;;;;;;5076109;28;20461;-67
2023/09/16 03:26:43;;;;;;;7.95;5.57;;;18.60;99.90;;;;;;5077034;28;20031;-68
2023/09/16 03:29:12;;;;;;;9.32;6.05;;;18.60;99.90;;;;;;5076015;28;20108;-68
2023/09/16 03:31:38;;;;;;;10.95;5.70;;;18.60;99.90;;;;;;5076848;28;20035;-68
2023/09/16 03:34:12;;;;;;;9.52;5.75;;;18.60;99.90;;;;;;5076229;28;20082;-67
2023/09/16 03:36:38;;;;;;;8.05;5.80;;;18.60;99.90;;;;;;5075616;28;20039;-68
2023/09/16 03:39:05;;;;;;;7.72;5.32;;;18.50;99.90;;;;;;5075713;28;20029;-68
2023/09/16 03:41:31;;;;;;;7.97;5.93;;;18.60;99.90;;;;;;5075247;28;20032;-68
2023/09/16 03:43:59;;;;;;;9.35;6.10;;;18.60;99.90;;;;;;5075945;28;20029;-67
2023/09/16 03:46:27;;;;;;;11.23;6.05;;;18.60;99.90;;;;;;5075266;28;20025;-67
2023/09/16 03:48:56;;;;;;;10.35;5.43;;;18.50;99.90;;;;;;5075660;28;20444;-67
2023/09/16 03:51:26;;;;;;;8.40;5.88;;;18.50;99.90;;;;;;5076456;28;20111;-67
2023/09/16 03:53:54;;;;;;;11.60;6.78;;;18.60;99.90;;;;;;5089767;28;20122;-67
2023/09/16 03:56:21;;;;;;;15.20;7.50;;;18.60;99.90;;;;;;5090041;28;20032;-67
2023/09/16 03:58:47;;;;;;;7.25;6.13;;;18.60;99.90;;;;;;5094990;28;20048;-67
2023/09/16 04:01:13;;;;;;;8.32;6.18;;;18.50;99.90;;;;;;5095232;28;20039;-67
2023/09/16 04:03:39;;;;;;;9.10;6.18;;;18.50;99.90;;;;;;5095557;28;20035;-67
2023/09/16 04:06:05;;;;;;;7.55;5.97;;;18.50;99.90;;;;;;5095513;28;20036;-67
2023/09/16 04:08:32;;;;;;;7.93;5.47;;;18.60;99.90;;;;;;5095023;28;20024;-67
2023/09/16 04:10:58;;;;;;;10.20;5.75;;;18.60;99.90;;;;;;5096761;28;20036;-67
2023/09/16 04:13:24;;;;;;;8.80;6.03;;;18.60;99.90;;;;;;5096261;28;20031;-67
2023/09/16 04:15:50;;;;;;;9.50;6.40;;;18.50;99.90;;;;;;5078438;28;20035;-67
2023/09/16 04:18:16;;;;;;;17.75;6.43;;;18.50;99.90;;;;;;5096307;28;20024;-67
2023/09/16 04:20:45;;;;;;;17.10;7.82;;;18.50;99.90;;;;;;5078274;28;20040;-66
2023/09/16 04:23:11;;;;;;;21.23;7.55;;;18.50;99.90;;;;;;5096156;28;20385;-65
2023/09/16 04:25:37;;;;;;;17.10;6.68;;;18.50;99.90;;;;;;5078348;28;20111;-65
2023/09/16 04:28:03;;;;;;;15.88;6.63;;;18.50;99.90;;;;;;5077768;28;20040;-65
2023/09/16 04:30:30;;;;;;;19.23;6.80;;;18.40;99.90;;;;;;5077758;28;20034;-64
2023/09/16 04:32:56;;;;;;;14.25;5.82;;;18.40;99.90;;;;;;5077856;28;20024;-64
2023/09/16 04:35:24;;;;;;;17.98;7.00;;;18.40;99.90;;;;;;5078253;28;20039;-64
2023/09/16 04:37:50;;;;;;;14.80;6.57;;;18.40;99.90;;;;;;5077436;28;20043;-64
2023/09/16 04:40:16;;;;;;;12.73;6.78;;;18.30;99.90;;;;;;5077740;28;20031;-64
2023/09/16 04:42:42;;;;;;;13.32;5.95;;;18.30;99.90;;;;;;5077524;28;20024;-64
2023/09/16 04:45:10;;;;;;;11.57;6.15;;;18.30;99.90;;;;;;5077693;28;20059;-64
2023/09/16 04:47:36;;;;;;;15.52;6.93;;;18.40;99.90;;;;;;5095510;28;20069;-64
2023/09/16 04:50:03;;;;;;;10.98;5.85;;;18.20;99.90;;;;;;5077681;28;20119;-64
2023/09/16 04:52:35;;;;;;;12.38;6.75;;;18.30;99.90;;;;;;5077731;28;20027;-64
2023/09/16 04:55:04;;;;;;;12.68;6.88;;;18.20;99.90;;;;;;5073924;28;20032;-64
2023/09/16 04:57:31;;;;;;;13.60;8.13;;;18.20;99.90;;;;;;5075883;28;20050;-64
2023/09/16 04:59:59;;;;;;;14.27;8.10;;;18.20;99.90;;;;;;5076897;28;20102;-64
2023/09/16 05:02:25;;;;;;;11.95;7.85;;;18.10;99.90;;;;;;5095681;28;20027;-64
2023/09/16 05:04:51;;;;;;;17.05;8.50;;;18.10;99.90;;;;;;5077111;28;20085;-64
2023/09/16 05:07:18;;;;;;;11.50;7.80;;;18.00;99.90;;;;;;5077422;28;20024;-64
2023/09/16 05:09:44;;;;;;;11.75;7.38;;;18.20;99.90;;;;;;5095180;28;20031;-64
2023/09/16 05:12:11;;;;;;;16.40;8.63;;;18.20;99.90;;;;;;5095430;28;20050;-64
2023/09/16 05:14:37;;;;;;;16.02;9.50;;;18.20;99.90;;;;;;5095077;28;20473;-64
2023/09/16 05:17:03;;;;;;;16.95;9.20;;;18.20;99.90;;;;;;5077233;28;20051;-65
2023/09/16 05:19:31;;;;;;;14.23;8.30;;;18.30;99.90;;;;;;5095087;28;20031;-65
2023/09/16 05:21:57;;;;;;;15.90;8.73;;;18.20;99.90;;;;;;5077089;28;20032;-65
2023/09/16 05:24:23;;;;;;;13.43;8.50;;;18.30;99.90;;;;;;5076842;28;20028;-64
2023/09/16 05:26:50;;;;;;;12.90;8.45;;;18.20;99.90;;;;;;5077054;28;20036;-64
2023/09/16 05:29:17;;;;;;;15.68;8.07;;;18.30;99.90;;;;;;5076560;28;20052;-64
2023/09/16 05:31:43;;;;;;;17.80;9.00;;;18.40;99.90;;;;;;5077099;28;20032;-64
2023/09/16 05:34:10;;;;;;;19.65;15.48;;;18.40;99.90;;;;;;5076574;28;20105;-64
2023/09/16 05:36:36;;;;;;;22.55;16.45;;;18.40;99.90;;;;;;5076839;28;20397;-64
2023/09/16 05:39:04;;;;;;;22.77;15.73;;;18.50;99.90;;;;;;5076792;28;20448;-64
2023/09/16 05:41:30;;;;;;;21.95;15.85;;;18.50;99.90;;;;;;5076249;28;20031;-64
2023/09/16 05:43:57;;;;;;;18.70;12.15;;;18.50;99.90;;;;;;5076366;28;20028;-64
2023/09/16 05:46:24;;;;;;;15.25;12.02;;;18.60;99.90;;;;;;5076420;28;20432;-64
2023/09/16 05:48:51;;;;;;;16.58;11.35;;;18.60;99.90;;;;;;5095102;28;20021;-65
2023/09/16 05:51:16;;;;;;;16.00;10.50;;;18.70;99.90;;;;;;5075958;28;20051;-65
2023/09/16 05:53:42;;;;;;;15.68;10.45;;;18.70;99.90;;;;;;5085454;28;20024;-64
2023/09/16 05:56:09;;;;;;;14.68;9.85;;;18.70;99.90;;;;;;5062975;28;20039;-65
2023/09/16 05:58:43;;;;;;;16.02;9.50;;;18.70;99.90;;;;;;5076341;28;20044;-65
2023/09/16 06:01:10;;;;;;;14.55;9.93;;;18.70;99.90;;;;;;5076205;28;20557;-65
2023/09/16 06:03:37;;;;;;;14.73;10.02;;;18.60;99.90;;;;;;5094771;28;20074;-65
2023/09/16 06:06:04;;;;;;;13.82;10.15;;;18.70;99.90;;;;;;5094177;28;20036;-65
2023/09/16 06:08:30;;;;;;;16.63;9.15;;;18.80;99.90;;;;;;5094677;28;20022;-65
2023/09/16 06:10:56;;;;;;;17.33;9.77;;;18.80;99.90;;;;;;5094344;28;20027;-65
2023/09/16 06:13:24;;;;;;;12.93;8.32;;;18.90;99.90;;;;;;5076291;28;20165;-65
2023/09/16 06:15:52;;;;;;;13.00;9.20;;;19.00;99.90;;;;;;5076086;28;20036;-65
2023/09/16 06:18:18;;;;;;;16.63;9.43;;;19.10;99.90;;;;;;5076260;28;20127;-65
2023/09/16 06:20:44;;;;;;;10.95;9.20;;;19.10;99.90;;;;;;5094073;28;20107;-65
2023/09/16 06:23:10;;;;;;;10.55;8.05;;;19.10;99.90;;;;;;5093269;28;20028;-65
2023/09/16 06:25:38;;;;;;;10.80;7.65;;;19.20;99.90;;;;;;5086122;28;20028;-65
2023/09/16 06:28:04;;;;;;;11.65;8.75;;;19.20;99.90;;;;;;5076135;28;20032;-65
2023/09/16 06:30:31;;;;;;;19.65;8.25;;;19.10;99.90;;;;;;5076366;28;20043;-65
2023/09/16 06:32:57;;;;;;;10.88;8.07;;;19.10;99.90;;;;;;5094086;28;20020;-66
2023/09/16 06:35:24;;;;;;;9.18;7.80;;;19.10;99.90;;;;;;5094375;28;20107;-66
2023/09/16 06:37:50;;;;;;;15.15;10.00;;;19.10;99.90;;;;;;5075808;28;20128;-66
2023/09/16 06:40:17;;;;;;;17.67;11.05;;;19.20;99.90;;;;;;5076122;28;20086;-66
2023/09/16 06:42:44;;;;;;;17.27;11.23;;;19.30;99.90;;;;;;5075985;28;20505;-66
2023/09/16 06:45:12;;;;;;;19.55;10.70;;;19.40;99.90;;;;;;5076194;28;20026;-65
2023/09/16 06:47:38;;;;;;;16.17;9.95;;;19.40;99.90;;;;;;5093835;28;20024;-66
2023/09/16 06:50:06;;;;;;;14.13;9.43;;;19.20;99.90;;;;;;5094150;28;20431;-66
2023/09/16 06:52:32;;;;;;;16.08;8.48;;;19.20;99.90;;;;;;5093909;28;20027;-66
2023/09/16 06:54:58;;;;;;;15.05;10.20;;;19.30;99.90;;;;;;5113884;28;20027;-66
2023/09/16 06:57:23;;;;;;;25.88;18.88;;;19.50;99.90;;;;;;5100519;28;20024;-66
2023/09/16 06:59:50;;;;;;;23.35;17.77;;;19.60;99.90;;;;;;5097832;28;20040;-66
2023/09/16 07:02:16;;;;;;;23.38;17.02;;;19.50;99.90;;;;;;5097479;28;20036;-66
2023/09/16 07:04:42;;;;;;;31.33;23.45;;;19.40;99.90;;;;;;5098060;28;20016;-66
2023/09/16 07:07:09;;;;;;;26.83;20.25;;;19.50;99.90;;;;;;5097481;28;20020;-66
2023/09/16 07:09:35;;;;;;;22.52;17.27;;;19.30;99.90;;;;;;5097759;28;20422;-66
2023/09/16 07:12:01;;;;;;;16.17;10.55;;;19.30;99.90;;;;;;5097717;28;20032;-66
2023/09/16 07:14:27;;;;;;;15.57;10.02;;;19.40;99.90;;;;;;5097628;28;20035;-66
2023/09/16 07:16:53;;;;;;;15.48;8.85;;;19.50;99.90;;;;;;5097650;28;20028;-66
2023/09/16 07:19:19;;;;;;;15.55;10.55;;;19.50;99.90;;;;;;5097228;28;20442;-66
2023/09/16 07:21:45;;;;;;;14.95;10.77;;;19.50;99.90;;;;;;5097527;28;20538;-66
2023/09/16 07:24:11;;;;;;;19.38;12.10;;;19.60;99.90;;;;;;5097120;28;20028;-66
2023/09/16 07:26:37;;;;;;;25.02;12.60;;;19.60;99.90;;;;;;5097503;28;20086;-66
2023/09/16 07:29:03;;;;;;;18.33;11.85;;;19.70;99.90;;;;;;5097015;28;20035;-66
2023/09/16 07:31:29;;;;;;;24.15;13.27;;;19.70;99.90;;;;;;5097482;28;20107;-66
2023/09/16 07:33:55;;;;;;;26.00;17.55;;;19.80;99.90;;;;;;5097046;28;20366;-66
2023/09/16 07:36:21;;;;;;;28.52;17.38;;;19.80;99.90;;;;;;5097609;28;20028;-66
2023/09/16 07:38:47;;;;;;;27.50;17.15;;;19.80;99.90;;;;;;5096886;28;20050;-66
2023/09/16 07:41:14;;;;;;;20.20;14.70;;;19.90;99.90;;;;;;5097158;28;20024;-66
2023/09/16 07:43:40;;;;;;;28.58;18.65;;;20.00;99.90;;;;;;5078719;28;20111;-66
2023/09/16 07:46:06;;;;;;;29.92;18.98;;;19.90;99.90;;;;;;5097135;28;20034;-66
2023/09/16 07:48:32;;;;;;;28.73;21.15;;;20.00;99.90;;;;;;5096976;28;20020;-65
2023/09/16 07:50:58;;;;;;;31.48;20.15;;;20.10;99.90;;;;;;5097092;28;20024;-66
2023/09/16 07:53:24;;;;;;;26.08;19.42;;;20.20;99.90;;;;;;5089776;28;20371;-66
2023/09/16 07:55:50;;;;;;;27.73;18.48;;;20.20;99.90;;;;;;5081240;28;20386;-66
2023/09/16 07:58:16;;;;;;;27.17;18.90;;;20.20;99.90;;;;;;5096859;28;20416;-65
2023/09/16 08:00:43;;;;;;;27.85;21.42;;;20.20;99.90;;;;;;5096540;28;20024;-65
2023/09/16 08:03:09;;;;;;;34.30;21.88;;;20.20;99.90;;;;;;5096832;28;20474;-66
2023/09/16 08:05:34;;;;;;;32.97;23.98;;;20.20;99.90;;;;;;5095732;28;20162;-66
2023/09/16 08:08:01;;;;;;;33.58;24.75;;;20.30;99.90;;;;;;5096740;28;20016;-66
2023/09/16 08:10:27;;;;;;;39.47;27.52;;;20.30;99.90;;;;;;5096707;28;20039;-66
2023/09/16 08:12:53;;;;;;;34.10;25.73;;;20.30;99.90;;;;;;5096743;28;20028;-66
2023/09/16 08:15:19;;;;;;;36.35;27.33;;;20.30;99.90;;;;;;5096149;28;20036;-66
2023/09/16 08:17:45;;;;;;;40.47;28.42;;;20.30;99.90;;;;;;5096663;28;20032;-66
2023/09/16 08:20:11;;;;;;;39.28;27.25;;;20.40;99.90;;;;;;5096104;28;20453;-66
2023/09/16 08:22:37;;;;;;;38.88;28.67;;;20.40;99.90;;;;;;5096396;28;20059;-66
2023/09/16 08:25:03;;;;;;;40.00;28.75;;;20.40;99.90;;;;;;5096058;28;20102;-66
2023/09/16 08:27:29;;;;;;;41.45;30.17;;;20.40;99.90;;;;;;5096263;28;20016;-66
2023/09/16 08:29:55;;;;;;;47.53;31.08;;;20.40;99.90;;;;;;5095846;28;20568;-66
2023/09/16 08:32:28;;;;;;;46.53;32.33;;;20.50;99.90;;;;;;5096322;28;20058;-66
2023/09/16 08:34:55;;;;;;;57.88;35.55;;;20.50;99.90;;;;;;5095799;28;20040;-67
2023/09/16 08:37:21;;;;;;;60.42;37.63;;;20.60;99.90;;;;;;5096153;28;20027;-66
2023/09/16 08:39:47;;;;;;;63.63;40.42;;;20.60;99.90;;;;;;5095837;28;20110;-66
2023/09/16 08:42:32;;;;;;;60.58;37.05;;;20.60;99.90;;;;;;5095931;28;20073;-67
2023/09/16 08:45:03;;;;;;;63.45;39.90;;;20.70;99.90;;;;;;5095599;28;20374;-67
2023/09/16 08:47:40;;;;;;;62.45;38.10;;;20.80;99.90;;;;;;5096128;28;20047;-67
2023/09/16 08:50:07;;;;;;;72.18;39.25;;;20.80;99.90;;;;;;5095597;28;20039;-66
2023/09/16 08:52:46;;;;;;;65.43;38.83;;;20.90;99.90;;;;;;5095749;28;20089;-67
2023/09/16 08:55:13;;;;;;;64.90;39.30;;;20.90;99.90;;;;;;5075495;28;20021;-67
2023/09/16 08:57:46;;;;;;;63.00;38.22;;;21.00;99.90;;;;;;5094850;28;20492;-67
2023/09/16 09:00:13;;;;;;;58.60;38.25;;;21.20;99.90;;;;;;5095534;28;20047;-66
2023/09/16 09:02:40;;;;;;;62.05;37.08;;;21.30;99.90;;;;;;5095748;28;20415;-67
2023/09/16 09:05:07;;;;;;;59.28;37.95;;;21.40;99.90;;;;;;5077253;28;20040;-66
2023/09/16 09:07:37;;;;;;;57.58;36.45;;;21.60;99.90;;;;;;5095249;28;20028;-67
2023/09/16 09:10:05;;;;;;;69.20;41.08;;;21.70;99.90;;;;;;5095560;28;20028;-67
2023/09/16 09:12:33;;;;;;;85.43;44.40;;;21.60;99.90;;;;;;5094869;28;20020;-67
2023/09/16 09:15:06;;;;;;;91.90;46.22;;;21.50;99.90;;;;;;5095517;28;20416;-66
2023/09/16 09:17:40;;;;;;;96.20;48.13;;;21.60;99.90;;;;;;5093911;28;20062;-67
2023/09/16 09:20:13;;;;;;;81.85;43.53;;;21.70;99.90;;;;;;5095211;28;20021;-67
2023/09/16 09:22:40;;;;;;;99.05;45.97;;;21.90;99.90;;;;;;5095068;28;20020;-66
2023/09/16 09:25:07;;;;;;;93.55;46.75;;;22.10;99.90;;;;;;5095198;28;20111;-67
2023/09/16 09:27:34;;;;;;;90.78;46.05;;;22.20;99.90;;;;;;5094729;28;20020;-66
2023/09/16 09:30:00;;;;;;;100.57;49.58;;;22.40;99.90;;;;;;5095155;28;20463;-66
2023/09/16 09:32:29;;;;;;;101.32;50.28;;;22.50;99.90;;;;;;5094830;28;20024;-66
2023/09/16 09:34:55;;;;;;;97.63;43.92;;;22.70;99.90;;;;;;5095143;28;20225;-67
2023/09/16 09:37:21;;;;;;;89.75;44.25;;;22.70;99.90;;;;;;5094798;28;20050;-66
2023/09/16 09:40:13;;;;;;;90.85;43.05;;;22.70;99.90;;;;;;5094980;28;20032;-67
2023/09/16 09:42:47;;;;;;;93.65;45.78;;;22.80;99.90;;;;;;5094481;28;20093;-67
2023/09/16 09:45:14;;;;;;;85.68;41.47;;;22.90;99.90;;;;;;5095238;28;20020;-67
2023/09/16 09:47:41;;;;;;;81.57;40.72;;;23.00;99.90;;;;;;5094480;28;20024;-67
2023/09/16 09:50:12;;;;;;;86.55;43.65;;;23.10;99.90;;;;;;5094826;28;20020;-67
2023/09/16 09:52:38;;;;;;;85.55;42.72;;;23.10;99.90;;;;;;5093943;28;20158;-67
2023/09/16 09:55:05;;;;;;;71.63;38.20;;;23.20;99.90;;;;;;5074562;28;20021;-67
2023/09/16 09:57:31;;;;;;;66.13;37.83;;;23.10;99.90;;;;;;5092602;28;20302;-67
2023/09/16 09:59:57;;;;;;;76.43;39.97;;;23.10;99.90;;;;;;5094777;28;20355;-67
2023/09/16 10:02:29;;;;;;;80.82;40.13;;;23.10;99.90;;;;;;5094233;28;20027;-67
2023/09/16 10:04:59;;;;;;;80.05;40.33;;;23.10;99.90;;;;;;5094699;28;20532;-67
2023/09/16 10:07:26;;;;;;;76.03;38.65;;;23.20;99.90;;;;;;5094604;28;20024;-67
2023/09/16 10:09:52;;;;;;;78.95;40.15;;;23.30;99.90;;;;;;5094404;28;20590;-67
2023/09/16 10:12:20;;;;;;;73.05;40.10;;;23.40;99.90;;;;;;5094438;28;20039;-67
2023/09/16 10:14:47;;;;;;;70.47;37.70;;;23.40;99.90;;;;;;5094438;28;20039;-67
2023/09/16 10:17:13;;;;;;;76.07;36.20;;;23.50;99.90;;;;;;5094466;28;20028;-67
2023/09/16 10:19:39;;;;;;;65.20;34.28;;;23.60;99.90;;;;;;5094046;28;20422;-67
2023/09/16 10:22:05;;;;;;;68.60;33.17;;;23.80;99.90;;;;;;5094322;28;20089;-67
2023/09/16 10:24:31;;;;;;;65.63;32.97;;;23.80;99.90;;;;;;5094053;28;20052;-67
2023/09/16 10:27:03;;;;;;;64.13;35.30;;;23.80;99.90;;;;;;5094528;28;20024;-67
2023/09/16 10:29:30;;;;;;;64.10;36.42;;;23.90;99.90;;;;;;5096625;28;20386;-67
2023/09/16 10:31:58;;;;;;;63.17;35.80;;;24.00;99.90;;;;;;5098680;28;20058;-67
2023/09/16 10:34:24;;;;;;;55.20;30.88;;;24.40;99.90;;;;;;5098215;28;20035;-67
2023/09/16 10:36:50;;;;;;;62.78;33.42;;;24.90;99.00;;;;;;5098438;28;20035;-67
2023/09/16 10:39:17;;;;;;;61.63;31.73;;;25.10;96.80;;;;;;5098103;28;20111;-67
2023/09/16 10:41:45;;;;;;;60.60;31.52;;;25.40;97.40;;;;;;5098392;28;20064;-67
2023/09/16 10:44:16;;;;;;;51.97;30.80;;;25.60;95.90;;;;;;5097938;28;20069;-67
2023/09/16 10:46:43;;;;;;;59.40;31.02;;;25.80;93.80;;;;;;5098695;28;20040;-67
2023/09/16 10:49:09;;;;;;;47.42;28.05;;;26.10;94.00;;;;;;5097916;28;20063;-67
2023/09/16 10:51:45;;;;;;;50.10;27.33;;;26.20;92.30;;;;;;5098157;28;20059;-67
2023/09/16 10:54:41;;;;;;;37.55;22.75;;;26.50;93.20;;;;;;5084423;28;20220;-67
2023/09/16 10:57:15;;;;;;;40.47;22.60;;;26.60;90.80;;;;;;5092981;28;20034;-67
2023/09/16 10:59:44;;;;;;;36.00;20.73;;;26.80;91.70;;;;;;5097288;28;20059;-67
2023/09/16 11:02:57;;;;;;;26.58;17.58;;;27.20;90.90;;;;;;5097935;28;20024;-67
2023/09/16 11:05:23;;;;;;;24.05;16.27;;;27.60;86.90;;;;;;4995546;28;20030;-67
2023/09/16 11:07:49;;;;;;;27.35;17.13;;;28.00;86.40;;;;;;4995820;28;20038;-67
2023/09/16 11:10:16;;;;;;;29.50;19.23;;;28.20;80.60;;;;;;4995439;28;20046;-67
2023/09/16 11:12:42;;;;;;;35.13;20.30;;;28.30;79.40;;;;;;4995855;28;20030;-68
2023/09/16 11:15:09;;;;;;;28.08;18.67;;;28.40;75.10;;;;;;4995377;28;20113;-68
2023/09/16 11:17:41;;;;;;;40.58;23.33;;;28.30;78.90;;;;;;4995654;28;20043;-68
2023/09/16 11:20:15;;;;;;;36.83;23.95;;;28.60;74.90;;;;;;4995199;28;20066;-68
2023/09/16 11:22:47;;;;;;;45.00;23.75;;;28.50;75.30;;;;;;4995557;28;20068;-67
2023/09/16 11:25:17;;;;;;;39.50;23.20;;;28.10;78.00;;;;;;4995286;28;20557;-68
2023/09/16 11:27:46;;;;;;;39.00;21.83;;;27.90;75.90;;;;;;4995779;28;20135;-68
2023/09/16 11:30:16;;;;;;;40.88;22.83;;;28.00;75.70;;;;;;4994924;28;20141;-68
2023/09/16 11:32:54;;;;;;;;;;;28.10;77.30;;;;;;4995913;28;20053;-68
2023/09/16 11:35:20;;;;;;;30.15;19.83;;;28.70;74.30;;;;;;5011638;28;19923;-68
2023/09/16 11:37:46;;;;;;;36.30;20.23;;;28.90;77.00;;;;;;5097356;28;20028;-68
2023/09/16 11:40:13;;;;;;;26.65;18.67;;;29.10;70.90;;;;;;5096547;28;20028;-67
2023/09/16 11:42:39;;;;;;;30.88;20.33;;;29.60;71.50;;;;;;5096844;28;20493;-68
2023/09/16 11:45:06;;;;;;;32.67;19.77;;;28.10;70.20;;;;;;5097325;28;20044;-68
2023/09/16 11:47:32;;;;;;;36.15;20.33;;;28.60;72.50;;;;;;5096830;28;20067;-68
2023/09/16 11:49:58;;;;;;;32.75;19.55;;;29.20;68.80;;;;;;5097429;28;20032;-67
2023/09/16 11:52:25;;;;;;;33.42;21.88;;;29.70;65.60;;;;;;5096751;28;20465;-68
2023/09/16 11:54:51;;;;;;;35.88;22.30;;;29.20;65.30;;;;;;5078420;28;20037;-68
2023/09/16 11:57:18;;;;;;;34.65;21.80;;;28.90;65.60;;;;;;5093033;28;20438;-68
2023/09/16 11:59:46;;;;;;;32.92;22.10;;;28.80;65.90;;;;;;5096797;28;20061;-68
2023/09/16 12:02:12;;;;;;;42.05;25.98;;;28.60;68.10;;;;;;5096447;28;20544;-68
2023/09/16 12:04:39;;;;;;;34.42;22.65;;;28.90;68.20;;;;;;5096664;28;20483;-68
2023/09/16 12:07:05;;;;;;;38.58;24.35;;;29.20;66.00;;;;;;5096187;28;20184;-68
2023/09/16 12:09:33;;;;;;;53.90;28.45;;;29.60;70.50;;;;;;5096818;28;20024;-68
2023/09/16 12:11:59;;;;;;;45.88;28.73;;;29.90;67.50;;;;;;5096463;28;20036;-68
2023/09/16 12:14:25;;;;;;;47.65;29.02;;;30.10;61.40;;;;;;5096789;28;20109;-68
2023/09/16 12:16:52;;;;;;;50.40;31.98;;;29.40;62.80;;;;;;5096117;28;20032;-69
2023/09/16 12:19:18;;;;;;;61.35;35.00;;;29.00;63.70;;;;;;5096643;28;20617;-68
2023/09/16 12:21:48;;;;;;;56.20;34.35;;;28.80;64.00;;;;;;5096188;28;20103;-67
2023/09/16 12:24:21;;;;;;;68.32;37.22;;;28.00;67.10;;;;;;5096524;28;20031;-68
2023/09/16 12:26:49;;;;;;;67.45;38.65;;;28.00;67.60;;;;;;5096162;28;20020;-68
2023/09/16 12:29:15;;;;;;;65.30;36.15;;;28.00;67.50;;;;;;5096338;28;20020;-68
2023/09/16 12:31:41;;;;;;;74.72;42.15;;;27.90;67.60;;;;;;5096309;28;20024;-68
2023/09/16 12:34:18;;;;;;;61.88;36.63;;;27.70;67.10;;;;;;5095923;28;20043;-68
2023/09/16 12:36:48;;;;;;;66.97;38.35;;;27.70;68.00;;;;;;5096126;28;20189;-68